Time;durP1;ratioP1;P1;durP2;ratioP2;P2;SDS_P1;SDS_P2;PMS_P1;PMS_P2;Temp;Humidity;BMP_temperature;BMP_pressure;BME280_temperature;BME280_humidity;BME280_pressure;Samples;Min_cycle;Max_cycle;Signal;HPM_P1;HPM_P2
2021/08/08 00:00:10;;;;;;;2.92;0.90;;;15.50;99.90;;;;;;5052184;28;20108;-67
2021/08/08 00:02:38;;;;;;;2.00;0.65;;;15.40;99.90;;;;;;5052150;28;20029;-68
2021/08/08 00:05:07;;;;;;;2.55;0.93;;;15.40;99.90;;;;;;5050360;28;20489;-67
2021/08/08 00:07:32;;;;;;;4.95;1.00;;;15.40;99.90;;;;;;5051596;28;20471;-67
2021/08/08 00:09:58;;;;;;;1.70;1.05;;;15.40;99.90;;;;;;5039139;28;20112;-68
2021/08/08 00:12:24;;;;;;;5.13;0.90;;;15.40;99.90;;;;;;5031658;28;20034;-67
2021/08/08 00:14:49;;;;;;;1.00;0.90;;;15.40;99.90;;;;;;5030754;28;20034;-68
2021/08/08 00:17:15;;;;;;;3.70;0.90;;;15.40;99.90;;;;;;5031637;28;20032;-67
2021/08/08 00:19:41;;;;;;;2.90;1.13;;;15.40;99.90;;;;;;5031830;28;20039;-67
2021/08/08 00:22:06;;;;;;;2.58;1.00;;;15.30;99.90;;;;;;5031801;28;20029;-67
2021/08/08 00:24:32;;;;;;;2.13;1.20;;;15.30;99.90;;;;;;5031632;28;20060;-67
2021/08/08 00:26:58;;;;;;;4.25;0.88;;;15.30;99.90;;;;;;5030244;28;20088;-67
2021/08/08 00:29:24;;;;;;;4.07;1.25;;;15.40;99.90;;;;;;5031262;28;20037;-67
2021/08/08 00:31:49;;;;;;;4.88;0.90;;;15.30;99.90;;;;;;5030600;28;20030;-67
2021/08/08 00:34:15;;;;;;;1.85;1.10;;;15.30;99.90;;;;;;5031189;28;20078;-67
2021/08/08 00:36:41;;;;;;;1.73;1.20;;;15.30;99.90;;;;;;5050205;28;20083;-68
2021/08/08 00:39:07;;;;;;;2.20;0.93;;;15.30;99.90;;;;;;5051152;28;20360;-67
2021/08/08 00:41:33;;;;;;;1.63;0.82;;;15.30;99.90;;;;;;5051387;28;20035;-67
2021/08/08 00:43:58;;;;;;;3.38;1.25;;;15.30;99.90;;;;;;5050856;28;20029;-67
2021/08/08 00:46:24;;;;;;;3.67;0.90;;;15.20;99.90;;;;;;5051500;28;20029;-67
2021/08/08 00:48:50;;;;;;;1.65;0.95;;;15.20;99.90;;;;;;5052086;28;20088;-67
2021/08/08 00:51:15;;;;;;;2.58;1.33;;;15.20;99.90;;;;;;5053817;28;20080;-67
2021/08/08 00:53:41;;;;;;;1.90;1.05;;;15.20;99.90;;;;;;5054411;28;20035;-67
2021/08/08 00:56:07;;;;;;;4.07;1.10;;;15.20;99.90;;;;;;5054946;28;20025;-67
2021/08/08 00:58:32;;;;;;;1.92;0.85;;;15.20;99.90;;;;;;5055100;28;20425;-67
2021/08/08 01:01:02;;;;;;;5.10;1.20;;;15.20;99.90;;;;;;5055387;28;20536;-68
2021/08/08 01:03:29;;;;;;;3.40;1.00;;;15.20;99.90;;;;;;5055173;28;20021;-67
2021/08/08 01:06:17;;;;;;;1.33;0.55;;;15.30;99.90;;;;;;5054622;28;20033;-67
2021/08/08 01:08:47;;;;;;;1.10;0.73;;;15.30;99.90;;;;;;5053349;28;20033;-68
2021/08/08 01:11:13;;;;;;;;;;;15.30;99.90;;;;;;5035607;28;20475;-67
2021/08/08 01:13:40;;;;;;;2.50;1.00;;;15.30;99.90;;;;;;5034726;28;19905;-67
2021/08/08 01:16:07;;;;;;;1.27;0.88;;;15.30;99.90;;;;;;5034668;28;20025;-67
2021/08/08 01:18:33;;;;;;;2.38;0.77;;;15.30;99.90;;;;;;5034998;28;20049;-67
2021/08/08 01:21:00;;;;;;;2.58;0.63;;;15.30;99.90;;;;;;5033901;28;20052;-67
2021/08/08 01:23:31;;;;;;;7.15;1.05;;;15.30;99.90;;;;;;5034683;28;20021;-67
2021/08/08 01:25:57;;;;;;;1.98;0.60;;;15.30;99.90;;;;;;5033940;28;20379;-67
2021/08/08 01:28:22;;;;;;;2.33;0.85;;;15.30;99.90;;;;;;5033944;28;20017;-67
2021/08/08 01:30:48;;;;;;;0.75;0.75;;;15.30;99.90;;;;;;5033719;28;20022;-67
2021/08/08 01:33:14;;;;;;;3.45;0.88;;;15.30;99.90;;;;;;5034177;28;20033;-67
2021/08/08 01:35:41;;;;;;;3.45;0.75;;;15.20;99.90;;;;;;5045767;28;20052;-68
2021/08/08 01:38:08;;;;;;;1.33;0.55;;;15.20;99.90;;;;;;5055059;28;20031;-67
2021/08/08 01:40:54;;;;;;;2.35;0.70;;;15.20;99.90;;;;;;5054364;28;20053;-67
2021/08/08 01:43:27;;;;;;;1.75;0.70;;;15.20;99.90;;;;;;5054086;28;20104;-67
2021/08/08 01:45:56;;;;;;;1.77;0.60;;;15.20;99.90;;;;;;5054160;28;20025;-67
2021/08/08 01:48:23;;;;;;;2.22;0.70;;;15.20;99.90;;;;;;5054736;28;20025;-67
2021/08/08 01:50:48;;;;;;;1.33;0.60;;;15.30;99.90;;;;;;5053645;28;20383;-67
2021/08/08 01:53:15;;;;;;;1.58;0.55;;;15.30;99.90;;;;;;5054045;28;20025;-67
2021/08/08 01:55:41;;;;;;;1.05;0.60;;;15.30;99.90;;;;;;5053949;28;20079;-68
2021/08/08 01:58:07;;;;;;;1.83;0.55;;;15.30;99.90;;;;;;5054379;28;20036;-67
2021/08/08 02:00:33;;;;;;;2.40;0.75;;;15.30;99.90;;;;;;5053313;28;20425;-67
2021/08/08 02:02:59;;;;;;;1.20;0.60;;;15.30;99.90;;;;;;5053003;28;20086;-67
2021/08/08 02:05:28;;;;;;;6.15;0.60;;;15.30;99.90;;;;;;5053941;28;20033;-67
2021/08/08 02:07:53;;;;;;;2.72;0.82;;;15.30;99.90;;;;;;5054225;28;20044;-67
2021/08/08 02:10:19;;;;;;;3.13;0.95;;;15.30;99.90;;;;;;5039164;28;20116;-67
2021/08/08 02:12:45;;;;;;;2.67;0.82;;;15.20;99.90;;;;;;5031113;28;20034;-68
2021/08/08 02:15:12;;;;;;;1.77;0.70;;;15.20;99.90;;;;;;5033631;28;20113;-67
2021/08/08 02:17:38;;;;;;;4.00;1.13;;;15.10;99.90;;;;;;5034204;28;20043;-67
2021/08/08 02:20:08;;;;;;;1.73;0.65;;;15.10;99.90;;;;;;5033690;28;20029;-67
2021/08/08 02:22:34;;;;;;;0.63;0.60;;;15.00;99.90;;;;;;5033888;28;20033;-67
2021/08/08 02:25:00;;;;;;;2.35;0.70;;;15.00;99.90;;;;;;5032703;28;20716;-67
2021/08/08 02:27:26;;;;;;;2.08;0.77;;;14.90;99.90;;;;;;5034102;28;20104;-67
2021/08/08 02:29:51;;;;;;;3.13;0.60;;;14.80;99.90;;;;;;5033369;28;20030;-67
2021/08/08 02:32:17;;;;;;;1.85;0.50;;;14.80;99.90;;;;;;5033036;28;20107;-67
2021/08/08 02:34:43;;;;;;;3.70;1.35;;;14.70;99.90;;;;;;5036020;28;20390;-68
2021/08/08 02:37:09;;;;;;;1.30;0.70;;;14.70;99.90;;;;;;5052924;28;20511;-67
2021/08/08 02:39:35;;;;;;;3.17;0.70;;;14.60;99.90;;;;;;5053181;28;20099;-67
2021/08/08 02:42:00;;;;;;;1.17;0.73;;;14.70;99.90;;;;;;5052682;28;20032;-67
2021/08/08 02:44:26;;;;;;;1.25;0.70;;;14.70;99.90;;;;;;5053189;28;20021;-67
2021/08/08 02:46:52;;;;;;;2.10;0.82;;;14.70;99.90;;;;;;5052215;28;20026;-67
2021/08/08 02:49:18;;;;;;;0.98;0.55;;;14.80;99.90;;;;;;5052862;28;20029;-67
2021/08/08 02:51:44;;;;;;;2.25;0.50;;;14.80;99.90;;;;;;5052093;28;20475;-68
2021/08/08 02:54:14;;;;;;;1.73;0.77;;;14.80;99.90;;;;;;5052618;28;20087;-67
2021/08/08 02:56:40;;;;;;;4.18;0.65;;;14.80;99.90;;;;;;5052870;28;20024;-67
2021/08/08 02:59:06;;;;;;;0.50;0.50;;;14.80;99.90;;;;;;5052233;28;20032;-67
2021/08/08 03:01:31;;;;;;;1.10;0.65;;;14.80;99.90;;;;;;5052347;28;20028;-67
2021/08/08 03:03:57;;;;;;;0.82;0.55;;;14.80;99.90;;;;;;5051952;28;20120;-67
2021/08/08 03:06:23;;;;;;;1.17;0.68;;;14.80;99.90;;;;;;5053037;28;20382;-67
2021/08/08 03:08:50;;;;;;;3.85;0.60;;;14.70;99.90;;;;;;5050220;28;20502;-67
2021/08/08 03:11:15;;;;;;;0.50;0.47;;;14.70;99.90;;;;;;5032050;28;20042;-67
2021/08/08 03:13:41;;;;;;;1.38;0.70;;;14.70;99.90;;;;;;5032502;28;20029;-67
2021/08/08 03:16:07;;;;;;;5.03;1.02;;;14.80;99.90;;;;;;5032416;28;20029;-67
2021/08/08 03:18:33;;;;;;;2.33;0.80;;;14.80;99.90;;;;;;5033174;28;20037;-67
2021/08/08 03:20:59;;;;;;;2.67;0.77;;;14.80;99.90;;;;;;5032267;28;20116;-67
2021/08/08 03:23:25;;;;;;;1.00;0.65;;;14.80;99.90;;;;;;5032405;28;20132;-67
2021/08/08 03:25:51;;;;;;;2.55;0.82;;;14.70;99.90;;;;;;5031456;28;20036;-68
2021/08/08 03:28:17;;;;;;;2.05;0.85;;;14.80;99.90;;;;;;5032354;28;20029;-67
2021/08/08 03:30:42;;;;;;;8.40;1.00;;;14.80;99.90;;;;;;5031853;28;20151;-68
2021/08/08 03:33:08;;;;;;;3.10;1.02;;;14.80;99.90;;;;;;5031723;28;20037;-67
2021/08/08 03:35:34;;;;;;;3.10;0.80;;;14.80;99.90;;;;;;5042284;28;20486;-67
2021/08/08 03:37:59;;;;;;;3.75;0.93;;;14.70;99.90;;;;;;5051215;28;20462;-67
2021/08/08 03:40:25;;;;;;;1.95;0.85;;;14.70;99.90;;;;;;5051903;28;20049;-67
2021/08/08 03:42:51;;;;;;;6.28;1.05;;;14.70;99.90;;;;;;5051297;28;20036;-67
2021/08/08 03:45:16;;;;;;;2.42;0.90;;;14.60;99.90;;;;;;5051928;28;20382;-67
2021/08/08 03:47:42;;;;;;;2.90;0.80;;;14.60;99.90;;;;;;5051458;28;20029;-67
2021/08/08 03:50:08;;;;;;;1.90;0.90;;;14.60;99.90;;;;;;5050960;28;20044;-67
2021/08/08 03:52:34;;;;;;;2.92;1.00;;;14.60;99.90;;;;;;5051274;28;20128;-67
2021/08/08 03:54:59;;;;;;;1.40;0.93;;;14.50;99.90;;;;;;5051195;28;20109;-67
2021/08/08 03:57:25;;;;;;;4.32;1.40;;;14.50;99.90;;;;;;5051730;28;20078;-67
2021/08/08 03:59:51;;;;;;;2.00;0.90;;;14.50;99.90;;;;;;5051109;28;20032;-67
2021/08/08 04:02:16;;;;;;;3.72;1.00;;;14.50;99.90;;;;;;5051413;28;20044;-67
2021/08/08 04:04:42;;;;;;;1.48;0.90;;;14.40;99.90;;;;;;5051735;28;20029;-68
2021/08/08 04:07:08;;;;;;;2.22;1.10;;;14.40;99.90;;;;;;5050891;28;20036;-67
2021/08/08 04:09:33;;;;;;;1.77;0.80;;;14.40;99.90;;;;;;5042754;28;20081;-67
2021/08/08 04:11:59;;;;;;;6.43;0.90;;;14.40;99.90;;;;;;5028495;28;20037;-67
2021/08/08 04:14:25;;;;;;;2.90;1.05;;;14.40;99.90;;;;;;5030071;28;20032;-67
2021/08/08 04:16:50;;;;;;;1.25;1.00;;;14.30;99.90;;;;;;5029408;28;20378;-67
2021/08/08 04:19:16;;;;;;;2.58;0.90;;;14.30;99.90;;;;;;5031256;28;20034;-67
2021/08/08 04:21:42;;;;;;;2.20;1.05;;;14.30;99.90;;;;;;5032040;28;20034;-67
2021/08/08 04:24:07;;;;;;;3.45;1.10;;;14.30;99.90;;;;;;5033541;28;20485;-67
2021/08/08 04:26:33;;;;;;;2.65;0.85;;;14.30;99.90;;;;;;5035773;28;20032;-67
2021/08/08 04:28:59;;;;;;;1.73;0.70;;;14.40;99.90;;;;;;5035837;28;20033;-67
2021/08/08 04:31:24;;;;;;;2.22;1.20;;;14.40;99.90;;;;;;5036578;28;20069;-67
2021/08/08 04:33:50;;;;;;;6.15;1.00;;;14.40;99.90;;;;;;5034764;28;20025;-67
2021/08/08 04:36:15;;;;;;;2.17;1.30;;;14.50;99.90;;;;;;5035325;28;20030;-67
2021/08/08 04:38:41;;;;;;;2.25;1.20;;;14.40;99.90;;;;;;5036212;28;20036;-67
2021/08/08 04:41:07;;;;;;;2.78;1.70;;;14.50;99.90;;;;;;5035475;28;20057;-67
2021/08/08 04:43:32;;;;;;;2.50;0.90;;;14.50;99.90;;;;;;5035135;28;20112;-67
2021/08/08 04:45:58;;;;;;;1.17;0.88;;;14.50;99.90;;;;;;5034088;28;20032;-67
2021/08/08 04:48:24;;;;;;;4.65;0.95;;;14.50;99.90;;;;;;5034772;28;20029;-67
2021/08/08 04:50:49;;;;;;;1.95;0.85;;;14.50;99.90;;;;;;5034467;28;20021;-67
2021/08/08 04:53:16;;;;;;;4.13;1.02;;;14.60;99.90;;;;;;5034335;28;20034;-67
2021/08/08 04:55:43;;;;;;;1.40;0.85;;;14.60;99.90;;;;;;5034160;28;20072;-67
2021/08/08 04:58:09;;;;;;;3.63;1.13;;;14.60;99.90;;;;;;5033128;28;20033;-67
2021/08/08 05:00:35;;;;;;;6.28;1.13;;;14.60;99.90;;;;;;5034191;28;20037;-67
2021/08/08 05:03:01;;;;;;;5.68;1.00;;;14.60;99.90;;;;;;5033529;28;20025;-67
2021/08/08 05:05:27;;;;;;;3.40;1.08;;;14.70;99.90;;;;;;5034229;28;20017;-67
2021/08/08 05:07:53;;;;;;;3.00;1.02;;;14.80;99.90;;;;;;5033572;28;20029;-68
2021/08/08 05:10:20;;;;;;;5.95;0.70;;;14.80;99.90;;;;;;5034158;28;20100;-67
2021/08/08 05:12:46;;;;;;;1.90;0.80;;;14.80;99.90;;;;;;5033016;28;20028;-67
2021/08/08 05:15:12;;;;;;;2.10;0.80;;;14.90;99.90;;;;;;5033688;28;20026;-67
2021/08/08 05:17:38;;;;;;;3.03;0.70;;;15.00;99.90;;;;;;5033156;28;20079;-67
2021/08/08 05:20:05;;;;;;;2.67;0.55;;;15.00;99.90;;;;;;5031356;28;20660;-68
2021/08/08 05:22:31;;;;;;;2.63;0.60;;;15.10;99.90;;;;;;5030404;28;20435;-67
2021/08/08 05:24:56;;;;;;;1.73;0.73;;;15.20;99.90;;;;;;5033074;28;20056;-68
2021/08/08 05:27:22;;;;;;;2.35;0.60;;;15.30;99.90;;;;;;5033522;28;20029;-67
2021/08/08 05:29:48;;;;;;;2.47;0.70;;;15.30;99.90;;;;;;5032794;28;20037;-69
2021/08/08 05:32:13;;;;;;;1.48;0.77;;;15.50;99.90;;;;;;5033336;28;20025;-73
2021/08/08 05:34:39;;;;;;;1.50;0.80;;;15.60;99.90;;;;;;5033079;28;20079;-74
2021/08/08 05:37:05;;;;;;;2.05;0.70;;;15.70;99.90;;;;;;5022547;28;20023;-74
2021/08/08 05:39:30;;;;;;;6.13;0.75;;;15.80;99.90;;;;;;5037045;28;20119;-70
2021/08/08 05:41:56;;;;;;;2.90;0.70;;;15.90;99.90;;;;;;5032805;28;20029;-74
2021/08/08 05:44:23;;;;;;;0.95;0.65;;;15.90;99.90;;;;;;5034116;28;20041;-74
2021/08/08 05:46:49;;;;;;;1.83;0.60;;;16.10;99.90;;;;;;5033530;28;20103;-72
2021/08/08 05:49:14;;;;;;;1.55;0.50;;;16.10;99.90;;;;;;5034016;28;20029;-74
2021/08/08 05:51:41;;;;;;;2.58;0.75;;;16.20;99.90;;;;;;5034181;28;20367;-78
2021/08/08 05:54:07;;;;;;;1.33;0.50;;;16.20;99.90;;;;;;5031839;28;20032;-80
2021/08/08 05:56:32;;;;;;;4.30;0.63;;;16.20;99.90;;;;;;5032812;28;20017;-80
2021/08/08 05:58:58;;;;;;;2.60;0.57;;;16.30;99.90;;;;;;5031650;28;20118;-80
2021/08/08 06:01:24;;;;;;;5.63;0.80;;;16.40;99.90;;;;;;5032455;28;20036;-80
2021/08/08 06:03:50;;;;;;;2.95;0.90;;;16.40;99.90;;;;;;5031730;28;20017;-71
2021/08/08 06:06:16;;;;;;;5.13;0.63;;;16.50;99.90;;;;;;5032368;28;20032;-72
2021/08/08 06:08:42;;;;;;;3.63;0.65;;;16.50;99.90;;;;;;5032501;28;20080;-71
2021/08/08 06:11:08;;;;;;;3.13;0.93;;;16.60;99.90;;;;;;5031692;28;20455;-71
2021/08/08 06:13:34;;;;;;;1.88;1.00;;;16.60;99.90;;;;;;5032450;28;20037;-71
2021/08/08 06:15:59;;;;;;;1.88;0.70;;;16.70;99.90;;;;;;5031727;28;20430;-72
2021/08/08 06:18:25;;;;;;;3.80;0.90;;;16.80;99.90;;;;;;5032214;28;20022;-72
2021/08/08 06:20:51;;;;;;;4.30;1.02;;;16.90;99.90;;;;;;5031177;28;20053;-71
2021/08/08 06:23:16;;;;;;;2.80;0.75;;;17.00;99.90;;;;;;5031885;28;20517;-72
2021/08/08 06:25:42;;;;;;;2.58;0.60;;;17.10;99.90;;;;;;5031991;28;20029;-72
2021/08/08 06:28:08;;;;;;;1.92;0.75;;;17.10;99.90;;;;;;5031510;28;20021;-71
2021/08/08 06:30:34;;;;;;;2.70;0.70;;;17.20;99.90;;;;;;5032154;28;20458;-71
2021/08/08 06:32:59;;;;;;;3.05;0.60;;;17.30;99.90;;;;;;5029517;28;20032;-72
2021/08/08 06:35:25;;;;;;;3.75;0.60;;;17.40;99.90;;;;;;5030788;28;20104;-72
2021/08/08 06:37:51;;;;;;;1.60;0.60;;;17.40;99.90;;;;;;5030644;28;20021;-71
2021/08/08 06:40:17;;;;;;;4.25;1.17;;;17.50;99.90;;;;;;5031607;28;20053;-73
2021/08/08 06:42:43;;;;;;;2.33;0.73;;;17.50;99.90;;;;;;5031706;28;20359;-73
2021/08/08 06:45:09;;;;;;;2.38;0.50;;;17.60;99.90;;;;;;5031049;28;20032;-73
2021/08/08 06:47:34;;;;;;;2.53;0.50;;;17.70;99.90;;;;;;5030751;28;20675;-78
2021/08/08 06:50:00;;;;;;;3.53;0.93;;;17.80;99.90;;;;;;5031316;28;20025;-78
2021/08/08 06:52:26;;;;;;;2.75;0.60;;;17.90;99.90;;;;;;5031774;28;20034;-76
2021/08/08 06:54:51;;;;;;;3.38;0.80;;;17.90;99.90;;;;;;5031543;28;20116;-77
2021/08/08 06:57:27;;;;;;;1.65;0.70;;;18.00;99.90;;;;;;5031741;28;20027;-75
2021/08/08 06:59:54;;;;;;;4.13;1.00;;;18.10;99.90;;;;;;5031981;28;20033;-72
2021/08/08 07:02:21;;;;;;;2.38;0.68;;;18.10;99.90;;;;;;5032851;28;20053;-69
2021/08/08 07:04:47;;;;;;;8.07;0.90;;;18.20;99.90;;;;;;5032616;28;20057;-70
2021/08/08 07:07:14;;;;;;;3.50;0.90;;;18.30;99.90;;;;;;5034095;28;20029;-71
2021/08/08 07:09:40;;;;;;;1.23;0.80;;;18.30;99.90;;;;;;5034693;28;20142;-70
2021/08/08 07:12:06;;;;;;;4.60;0.70;;;18.30;99.90;;;;;;5028829;28;20495;-69
2021/08/08 07:14:33;;;;;;;4.38;0.68;;;18.40;99.90;;;;;;5032529;28;20501;-69
2021/08/08 07:17:00;;;;;;;1.73;0.55;;;18.50;99.90;;;;;;5030799;28;20033;-71
2021/08/08 07:19:25;;;;;;;1.25;0.73;;;18.60;99.90;;;;;;5031205;28;20026;-75
2021/08/08 07:21:55;;;;;;;2.47;1.10;;;18.60;99.90;;;;;;5029893;28;20032;-70
2021/08/08 07:24:21;;;;;;;3.97;1.10;;;18.70;99.90;;;;;;5028773;28;20032;-71
2021/08/08 07:26:47;;;;;;;2.45;0.88;;;18.80;99.90;;;;;;5030959;28;20105;-71
2021/08/08 07:29:13;;;;;;;3.28;0.95;;;18.90;99.90;;;;;;5030169;28;20032;-69
2021/08/08 07:31:39;;;;;;;3.90;1.00;;;19.00;99.90;;;;;;5031106;28;20021;-69
2021/08/08 07:34:04;;;;;;;1.95;0.70;;;19.10;99.40;;;;;;5030458;28;20027;-70
2021/08/08 07:36:30;;;;;;;3.70;0.80;;;19.10;98.90;;;;;;5029198;28;20029;-70
2021/08/08 07:38:56;;;;;;;3.70;0.90;;;19.10;98.40;;;;;;5029839;28;20033;-66
2021/08/08 07:41:22;;;;;;;1.50;0.65;;;19.10;98.30;;;;;;5030165;28;20057;-66
2021/08/08 07:43:47;;;;;;;4.00;1.15;;;19.20;98.10;;;;;;5030141;28;20017;-66
2021/08/08 07:46:13;;;;;;;2.88;1.00;;;19.20;98.70;;;;;;5031633;28;20116;-66
2021/08/08 07:48:39;;;;;;;1.60;0.70;;;19.40;97.60;;;;;;5030881;28;20025;-66
2021/08/08 07:51:05;;;;;;;2.15;0.70;;;19.40;97.60;;;;;;5030068;28;20082;-66
2021/08/08 07:53:31;;;;;;;2.33;0.90;;;19.50;97.80;;;;;;5030312;28;20034;-66
2021/08/08 07:55:57;;;;;;;3.33;0.85;;;19.70;96.40;;;;;;5029956;28;20040;-67
2021/08/08 07:58:23;;;;;;;2.83;0.70;;;19.80;95.10;;;;;;5029757;28;20759;-66
2021/08/08 08:00:49;;;;;;;1.65;1.00;;;19.90;95.20;;;;;;5029946;28;20034;-66
2021/08/08 08:03:15;;;;;;;3.22;0.80;;;20.00;94.40;;;;;;5030562;28;20546;-66
2021/08/08 08:05:40;;;;;;;2.25;0.82;;;20.00;93.50;;;;;;5030386;28;20064;-66
2021/08/08 08:08:07;;;;;;;5.35;1.17;;;20.00;92.60;;;;;;5030174;28;20044;-66
2021/08/08 08:10:32;;;;;;;2.78;1.08;;;20.10;92.30;;;;;;5031435;28;20026;-66
2021/08/08 08:12:59;;;;;;;3.58;0.80;;;20.20;92.30;;;;;;5029521;28;20032;-66
2021/08/08 08:15:28;;;;;;;2.75;1.15;;;20.00;92.10;;;;;;5030618;28;20382;-66
2021/08/08 08:17:54;;;;;;;5.35;0.68;;;20.00;91.90;;;;;;5030048;28;20029;-65
2021/08/08 08:20:20;;;;;;;1.73;0.75;;;20.10;92.20;;;;;;5030700;28;20056;-66
2021/08/08 08:22:46;;;;;;;3.00;0.98;;;20.20;92.30;;;;;;5030448;28;20030;-66
2021/08/08 08:25:11;;;;;;;2.25;0.80;;;20.30;91.90;;;;;;5030376;28;20036;-66
2021/08/08 08:27:38;;;;;;;4.82;1.05;;;20.40;90.50;;;;;;5030152;28;20029;-66
2021/08/08 08:30:05;;;;;;;5.07;0.90;;;20.50;90.10;;;;;;5029445;28;20048;-67
2021/08/08 08:32:30;;;;;;;3.13;0.70;;;20.60;89.90;;;;;;5030202;28;20030;-67
2021/08/08 08:35:01;;;;;;;6.60;0.80;;;20.80;87.80;;;;;;5029535;28;20033;-66
2021/08/08 08:37:27;;;;;;;2.33;0.90;;;21.10;87.10;;;;;;5030267;28;20029;-67
2021/08/08 08:39:52;;;;;;;3.47;1.00;;;21.20;84.60;;;;;;5031358;28;20505;-68
2021/08/08 08:42:18;;;;;;;4.07;0.82;;;21.30;83.20;;;;;;5030206;28;20059;-68
2021/08/08 08:44:44;;;;;;;4.45;1.00;;;21.30;83.80;;;;;;5030085;28;20108;-68
2021/08/08 08:47:14;;;;;;;2.67;0.93;;;21.40;82.30;;;;;;5029621;28;20459;-68
2021/08/08 08:49:46;;;;;;;1.33;0.60;;;21.50;80.40;;;;;;5029906;28;20117;-67
2021/08/08 08:52:13;;;;;;;3.17;0.80;;;21.70;80.40;;;;;;5029645;28;20083;-67
2021/08/08 08:54:38;;;;;;;1.70;0.65;;;21.70;79.60;;;;;;5029891;28;20037;-67
2021/08/08 08:57:06;;;;;;;3.17;0.75;;;21.60;79.50;;;;;;5029394;28;20018;-66
2021/08/08 08:59:32;;;;;;;2.35;0.98;;;21.50;80.00;;;;;;5029658;28;20018;-66
2021/08/08 09:01:58;;;;;;;1.20;0.73;;;21.40;81.10;;;;;;5028972;28;20027;-66
2021/08/08 09:04:24;;;;;;;2.70;0.98;;;21.30;81.40;;;;;;5029785;28;20070;-66
2021/08/08 09:06:50;;;;;;;6.20;0.90;;;21.20;82.10;;;;;;5029426;28;20024;-67
2021/08/08 09:09:16;;;;;;;2.13;0.60;;;21.10;81.90;;;;;;5031575;28;20163;-66
2021/08/08 09:11:44;;;;;;;2.92;0.68;;;21.10;83.00;;;;;;5033488;28;20033;-63
2021/08/08 09:14:11;;;;;;;2.83;1.00;;;21.20;80.50;;;;;;5031690;28;20167;-66
2021/08/08 09:16:39;;;;;;;4.22;0.73;;;21.10;81.40;;;;;;5033280;28;20025;-65
2021/08/08 09:19:05;;;;;;;1.85;0.60;;;21.30;81.80;;;;;;5032650;28;20025;-66
2021/08/08 09:21:33;;;;;;;4.20;0.90;;;21.60;80.90;;;;;;5033000;28;20026;-68
2021/08/08 09:24:01;;;;;;;3.97;0.90;;;21.90;76.50;;;;;;5031898;28;20040;-67
2021/08/08 09:26:36;;;;;;;2.90;0.98;;;22.10;75.70;;;;;;5033497;28;20072;-67
2021/08/08 09:29:07;;;;;;;4.82;0.88;;;22.20;73.80;;;;;;5031257;28;20037;-66
2021/08/08 09:31:41;;;;;;;2.72;0.90;;;22.30;72.20;;;;;;5034067;28;20029;-66
2021/08/08 09:34:08;;;;;;;2.25;0.55;;;22.40;71.50;;;;;;5033343;28;20029;-67
2021/08/08 09:36:42;;;;;;;3.40;0.80;;;22.40;71.80;;;;;;5034381;28;20029;-67
2021/08/08 09:39:09;;;;;;;3.13;0.60;;;22.60;71.50;;;;;;5040255;28;20567;-67
2021/08/08 09:41:35;;;;;;;2.38;1.02;;;22.50;71.60;;;;;;5054194;28;20041;-65
2021/08/08 09:44:10;;;;;;;2.70;1.30;;;22.50;71.50;;;;;;5053143;28;20021;-65
2021/08/08 09:46:36;;;;;;;2.15;0.90;;;22.60;71.40;;;;;;5053874;28;20104;-65
2021/08/08 09:49:12;;;;;;;1.17;0.77;;;22.70;70.80;;;;;;5052837;28;20026;-65
2021/08/08 09:51:52;;;;;;;4.47;1.70;;;22.90;70.90;;;;;;5053853;28;20104;-65
2021/08/08 09:54:19;;;;;;;2.25;0.70;;;23.00;69.40;;;;;;5053678;28;20151;-65
2021/08/08 09:56:55;;;;;;;1.92;1.05;;;23.00;68.40;;;;;;5053803;28;20029;-65
2021/08/08 09:59:21;;;;;;;6.95;0.98;;;23.00;69.10;;;;;;5053767;28;20024;-65
2021/08/08 10:01:47;;;;;;;6.53;1.02;;;23.20;68.80;;;;;;5053444;28;20394;-65
2021/08/08 10:04:12;;;;;;;3.08;0.90;;;23.30;66.40;;;;;;5052407;28;20064;-65
2021/08/08 10:06:40;;;;;;;2.75;0.73;;;23.50;66.00;;;;;;5053087;28;20450;-65
2021/08/08 10:09:06;;;;;;;2.00;0.80;;;23.60;66.00;;;;;;5048229;28;20076;-65
2021/08/08 10:11:33;;;;;;;3.85;1.13;;;23.50;65.00;;;;;;5033198;28;20049;-65
2021/08/08 10:14:02;;;;;;;3.63;1.20;;;23.40;65.90;;;;;;5032687;28;20053;-65
2021/08/08 10:16:36;;;;;;;3.87;0.80;;;23.10;66.40;;;;;;5033293;28;20033;-65
2021/08/08 10:19:03;;;;;;;1.90;0.63;;;23.00;65.80;;;;;;5032388;28;20029;-65
2021/08/08 10:21:33;;;;;;;1.67;0.85;;;22.90;66.40;;;;;;5032571;28;20095;-65
2021/08/08 10:24:03;;;;;;;2.25;0.98;;;22.90;66.80;;;;;;5032257;28;20091;-65
2021/08/08 10:26:29;;;;;;;2.40;0.88;;;23.00;65.90;;;;;;5033311;28;20425;-65
2021/08/08 10:28:57;;;;;;;2.65;0.80;;;23.10;65.10;;;;;;5032418;28;20059;-65
2021/08/08 10:31:24;;;;;;;2.85;1.10;;;23.10;65.30;;;;;;5033238;28;20021;-65
2021/08/08 10:33:54;;;;;;;2.08;0.93;;;23.00;65.60;;;;;;5033158;28;20459;-65
2021/08/08 10:36:33;;;;;;;5.47;1.60;;;22.90;66.30;;;;;;5033108;28;20052;-65
2021/08/08 10:39:16;;;;;;;1.48;0.88;;;22.90;65.50;;;;;;5038310;28;20100;-64
2021/08/08 10:41:54;;;;;;;2.53;0.93;;;23.10;66.00;;;;;;5052783;28;20036;-65
2021/08/08 10:44:21;;;;;;;3.25;0.80;;;23.10;63.20;;;;;;5052930;28;20028;-65
2021/08/08 10:46:49;;;;;;;2.25;1.38;;;23.00;63.50;;;;;;5047568;28;20454;-65
2021/08/08 10:49:29;;;;;;;1.27;0.88;;;23.00;64.00;;;;;;5053092;28;20521;-65
2021/08/08 10:51:59;;;;;;;;;;;22.90;63.90;;;;;;5052948;28;20147;-66
2021/08/08 10:54:25;;;;;;;3.40;0.98;;;22.70;64.60;;;;;;5052679;28;19916;-65
2021/08/08 10:56:50;;;;;;;3.90;1.10;;;22.50;65.10;;;;;;5052181;28;20037;-64
2021/08/08 10:59:18;;;;;;;3.20;1.10;;;22.40;64.30;;;;;;5051126;28;20475;-68
2021/08/08 11:01:44;;;;;;;3.97;0.98;;;22.30;65.10;;;;;;5052587;28;20067;-76
2021/08/08 11:04:10;;;;;;;4.38;0.90;;;22.30;65.00;;;;;;5051827;28;20470;-69
2021/08/08 11:06:39;;;;;;;1.27;0.70;;;22.50;62.90;;;;;;5053956;28;20082;-70
2021/08/08 11:09:05;;;;;;;2.35;1.08;;;22.70;62.90;;;;;;5048359;28;20033;-69
2021/08/08 11:11:34;;;;;;;3.22;0.77;;;23.10;63.10;;;;;;5033372;28;20045;-70
2021/08/08 11:14:14;;;;;;;3.78;0.90;;;23.50;62.00;;;;;;5032579;28;20053;-69
2021/08/08 11:16:43;;;;;;;1.95;0.90;;;23.90;61.00;;;;;;5038178;28;20035;-71
2021/08/08 11:19:09;;;;;;;5.32;1.05;;;24.30;61.00;;;;;;5052220;28;20044;-71
2021/08/08 11:21:35;;;;;;;2.08;0.80;;;24.70;60.60;;;;;;5052753;28;20029;-69
2021/08/08 11:24:04;;;;;;;3.78;0.90;;;25.00;58.80;;;;;;5052034;28;20025;-70
2021/08/08 11:26:30;;;;;;;1.85;0.60;;;25.10;57.80;;;;;;5052717;28;20024;-70
2021/08/08 11:28:58;;;;;;;2.03;0.68;;;25.20;57.00;;;;;;5051964;28;20466;-68
2021/08/08 11:31:29;;;;;;;2.15;0.77;;;25.30;56.50;;;;;;5052702;28;20120;-70
2021/08/08 11:33:57;;;;;;;2.05;0.73;;;25.30;56.80;;;;;;5051777;28;20466;-68
2021/08/08 11:36:42;;;;;;;2.42;0.93;;;25.20;55.20;;;;;;5052699;28;20047;-69
2021/08/08 11:39:10;;;;;;;1.50;0.95;;;25.10;55.30;;;;;;5051356;28;20426;-68
2021/08/08 11:41:36;;;;;;;1.92;1.15;;;24.70;56.90;;;;;;5052129;28;20531;-70
2021/08/08 11:44:13;;;;;;;1.60;0.75;;;24.50;57.40;;;;;;5051870;28;20109;-68
2021/08/08 11:46:41;;;;;;;2.63;1.20;;;24.40;58.10;;;;;;5052262;28;20021;-68
2021/08/08 11:49:18;;;;;;;1.88;0.70;;;24.30;58.30;;;;;;5051305;28;20377;-68
2021/08/08 11:52:03;;;;;;;2.75;0.90;;;24.20;57.60;;;;;;5052346;28;20056;-73
2021/08/08 11:54:31;;;;;;;4.25;0.80;;;24.00;58.10;;;;;;5052236;28;20099;-66
2021/08/08 11:56:57;;;;;;;2.33;1.17;;;23.80;58.50;;;;;;5051511;28;20021;-66
2021/08/08 11:59:33;;;;;;;3.75;0.80;;;23.70;59.30;;;;;;5052228;28;20032;-66
2021/08/08 12:02:08;;;;;;;1.45;0.70;;;23.70;60.50;;;;;;5051685;28;20496;-66
2021/08/08 12:04:36;;;;;;;1.20;0.85;;;23.80;59.00;;;;;;5052127;28;20123;-66
2021/08/08 12:07:04;;;;;;;4.32;1.10;;;23.80;58.30;;;;;;5051585;28;20381;-66
2021/08/08 12:09:30;;;;;;;2.28;1.25;;;23.80;58.80;;;;;;5044300;28;20040;-66
2021/08/08 12:11:57;;;;;;;2.10;0.90;;;23.70;58.80;;;;;;5031369;28;20378;-67
2021/08/08 12:14:41;;;;;;;4.03;1.15;;;23.50;61.30;;;;;;5032074;28;20072;-66
2021/08/08 12:17:10;;;;;;;2.88;1.60;;;22.90;64.40;;;;;;5040451;28;20021;-66
2021/08/08 12:19:37;;;;;;;2.13;0.90;;;22.50;65.60;;;;;;5051909;28;20028;-66
2021/08/08 12:22:08;;;;;;;0.55;0.50;;;22.10;61.20;;;;;;5031334;28;20355;-65
2021/08/08 12:24:37;;;;;;;2.00;0.52;;;21.90;59.50;;;;;;5031977;28;20029;-66
2021/08/08 12:27:03;;;;;;;1.05;0.70;;;22.10;59.50;;;;;;5031327;28;20086;-66
2021/08/08 12:29:31;;;;;;;1.60;0.65;;;22.70;57.50;;;;;;5031651;28;20427;-68
2021/08/08 12:32:12;;;;;;;1.58;0.98;;;23.20;56.50;;;;;;5031078;28;20482;-66
2021/08/08 12:34:40;;;;;;;0.63;0.40;;;24.00;55.30;;;;;;5031917;28;20095;-66
2021/08/08 12:37:08;;;;;;;1.60;0.60;;;24.00;53.80;;;;;;5031369;28;20052;-66
2021/08/08 12:39:35;;;;;;;1.33;0.60;;;23.80;54.80;;;;;;5031576;28;20045;-66
2021/08/08 12:42:02;;;;;;;1.00;0.75;;;23.80;53.80;;;;;;5031235;28;20032;-66
2021/08/08 12:44:33;;;;;;;1.88;0.90;;;24.20;54.70;;;;;;5032908;28;20029;-66
2021/08/08 12:47:01;;;;;;;2.13;0.90;;;24.30;53.40;;;;;;5042914;28;20070;-66